createdAt,value
2018-04-15T00:01:41.414Z,86.83
2018-04-15T00:04:07.850Z,90.03
2018-04-15T00:06:34.257Z,81.73
2018-04-15T00:09:00.673Z,78.50
2018-04-15T00:11:27.093Z,67.97
2018-04-15T00:13:53.518Z,78.53
2018-04-15T00:16:20.682Z,71.70
2018-04-15T00:18:47.122Z,72.10
2018-04-15T00:21:13.595Z,75.97
2018-04-15T00:23:40.023Z,81.00
2018-04-15T00:26:06.442Z,79.87
2018-04-15T00:28:32.911Z,83.13
2018-04-15T00:30:59.348Z,74.20
2018-04-15T00:33:25.819Z,78.67
2018-04-15T00:35:52.244Z,78.60
2018-04-15T00:38:18.699Z,78.27
2018-04-15T00:40:45.159Z,73.87
2018-04-15T00:43:11.582Z,76.70
2018-04-15T00:45:38.071Z,72.00
2018-04-15T00:48:04.504Z,75.47
2018-04-15T00:50:30.931Z,75.70
2018-04-15T00:52:58.123Z,76.80
2018-04-15T00:55:24.583Z,78.63
2018-04-15T00:57:51.003Z,78.27
2018-04-15T01:00:17.427Z,78.17
2018-04-15T01:02:43.841Z,76.37
2018-04-15T01:05:10.259Z,76.30
2018-04-15T01:07:37.472Z,77.60
2018-04-15T01:10:03.920Z,85.03
2018-04-15T01:12:30.363Z,82.53
2018-04-15T01:14:57.539Z,78.13
2018-04-15T01:17:24.727Z,78.07
2018-04-15T01:19:51.198Z,77.93
2018-04-15T01:22:17.610Z,74.40
2018-04-15T01:24:44.035Z,79.43
2018-04-15T01:27:10.458Z,72.50
2018-04-15T01:29:36.876Z,77.57
2018-04-15T01:32:03.305Z,76.37
2018-04-15T01:34:29.723Z,73.13
2018-04-15T01:36:56.155Z,72.30
2018-04-15T01:39:23.333Z,74.83
2018-04-15T01:41:49.785Z,72.87
2018-04-15T01:44:16.214Z,66.37
2018-04-15T01:46:42.649Z,73.97
2018-04-15T01:49:09.071Z,77.73
2018-04-15T01:51:35.560Z,68.10
2018-04-15T01:54:02.775Z,66.50
2018-04-15T01:56:29.184Z,68.40
2018-04-15T01:58:55.650Z,61.60
2018-04-15T02:01:22.078Z,64.23
2018-04-15T02:03:48.524Z,66.97
2018-04-15T02:06:14.961Z,69.37
2018-04-15T02:08:41.418Z,64.20
2018-04-15T02:11:08.577Z,67.50
2018-04-15T02:13:35.025Z,60.47
2018-04-15T02:16:01.523Z,59.00
2018-04-15T02:18:28.232Z,62.40
2018-04-15T02:20:54.682Z,58.50
2018-04-15T02:23:21.148Z,53.23
2018-04-15T02:25:48.326Z,56.13
2018-04-15T02:28:14.810Z,56.17
2018-04-15T02:30:42.716Z,51.87
2018-04-15T02:33:09.170Z,53.37
2018-04-15T02:35:35.604Z,49.80
2018-04-15T02:38:02.042Z,51.37
2018-04-15T02:40:28.499Z,50.20
2018-04-15T02:42:54.936Z,45.70
2018-04-15T02:45:21.380Z,42.90
2018-04-15T02:47:47.807Z,44.67
2018-04-15T02:50:14.251Z,40.77
2018-04-15T02:52:40.678Z,38.63
2018-04-15T02:55:07.146Z,37.97
2018-04-15T02:57:34.295Z,35.87
2018-04-15T03:00:00.750Z,34.17
2018-04-15T03:02:27.176Z,35.20
2018-04-15T03:04:53.603Z,33.07
2018-04-15T03:07:20.050Z,30.53
2018-04-15T03:09:46.488Z,28.87
2018-04-15T03:12:12.928Z,32.57
2018-04-15T03:14:39.357Z,30.03
2018-04-15T03:17:05.780Z,33.23
2018-04-15T03:19:32.240Z,27.67
2018-04-15T03:21:58.679Z,27.50
2018-04-15T03:24:25.146Z,24.97
2018-04-15T03:26:51.571Z,26.80
2018-04-15T03:29:18.014Z,24.27
2018-04-15T03:31:45.204Z,23.03
2018-04-15T03:34:11.654Z,22.33
2018-04-15T03:36:38.071Z,21.13
2018-04-15T03:39:05.484Z,22.57
2018-04-15T03:41:31.925Z,19.23
2018-04-15T03:43:58.380Z,19.70
2018-04-15T03:46:24.849Z,19.40
2018-04-15T03:48:51.268Z,16.80
2018-04-15T03:51:17.716Z,19.10
2018-04-15T03:53:44.144Z,18.80
2018-04-15T03:56:10.558Z,13.37
2018-04-15T03:58:36.985Z,14.67
2018-04-15T04:01:03.441Z,13.53
2018-04-15T04:03:29.865Z,15.63
2018-04-15T04:05:56.284Z,13.80
2018-04-15T04:08:23.459Z,17.67
2018-04-15T04:10:49.886Z,18.30
2018-04-15T04:13:16.359Z,11.00
2018-04-15T04:15:42.821Z,13.97
2018-04-15T04:18:21.461Z,12.40
2018-04-15T04:21:00.083Z,12.17
2018-04-15T04:23:38.742Z,10.87
2018-04-15T04:26:05.180Z,9.83
2018-04-15T04:28:31.598Z,9.43
2018-04-15T04:30:58.047Z,7.17
2018-04-15T04:33:24.464Z,6.70
2018-04-15T04:35:50.873Z,7.50
2018-04-15T04:38:17.322Z,6.87
2018-04-15T04:40:43.717Z,6.80
2018-04-15T04:43:10.909Z,6.67
2018-04-15T04:45:37.345Z,6.93
2018-04-15T04:48:03.789Z,9.57
2018-04-15T04:50:30.202Z,6.50
2018-04-15T04:52:56.617Z,8.40
2018-04-15T04:55:23.049Z,11.13
2018-04-15T04:57:49.466Z,11.33
2018-04-15T05:00:16.627Z,10.83
2018-04-15T05:02:43.802Z,9.83
2018-04-15T05:05:10.242Z,9.63
2018-04-15T05:07:36.706Z,8.90
2018-04-15T05:10:03.138Z,9.77
2018-04-15T05:12:29.544Z,10.10
2018-04-15T05:14:55.979Z,7.07
2018-04-15T05:17:22.412Z,9.20
2018-04-15T05:19:48.840Z,6.60
2018-04-15T05:22:15.246Z,6.73
2018-04-15T05:24:41.657Z,7.10
2018-04-15T05:27:08.061Z,6.50
2018-04-15T05:29:34.487Z,7.03
2018-04-15T05:32:00.909Z,9.10
2018-04-15T05:34:27.359Z,6.77
2018-04-15T05:36:53.784Z,7.63
2018-04-15T05:39:21.165Z,8.63
2018-04-15T05:41:47.631Z,8.50
2018-04-15T05:44:14.820Z,7.80
2018-04-15T05:46:41.279Z,9.30
2018-04-15T05:49:07.696Z,8.43
2018-04-15T05:51:34.118Z,9.47
2018-04-15T05:54:00.545Z,8.30
2018-04-15T05:56:26.958Z,8.70
2018-04-15T05:58:54.107Z,8.57
2018-04-15T06:01:21.265Z,8.57
2018-04-15T06:03:47.727Z,8.33
2018-04-15T06:06:14.142Z,8.90
2018-04-15T06:08:40.560Z,8.33
2018-04-15T06:11:07.746Z,8.70
2018-04-15T06:13:34.164Z,9.00
2018-04-15T06:16:00.582Z,8.83
2018-04-15T06:18:27.028Z,8.77
2018-04-15T06:20:53.466Z,8.70
2018-04-15T06:23:19.911Z,9.13
2018-04-15T06:25:46.363Z,9.03
2018-04-15T06:28:12.799Z,8.57
2018-04-15T06:30:39.213Z,8.67
2018-04-15T06:33:05.636Z,9.00
2018-04-15T06:35:32.097Z,8.40
2018-04-15T06:37:58.521Z,8.23
2018-04-15T06:40:24.944Z,8.80
2018-04-15T06:42:51.375Z,8.87
2018-04-15T06:45:17.821Z,8.97
2018-04-15T06:47:44.257Z,9.13
2018-04-15T06:50:10.671Z,8.60
2018-04-15T06:52:37.107Z,9.63
2018-04-15T06:55:03.541Z,9.77
2018-04-15T06:57:29.983Z,9.83
2018-04-15T07:00:03.581Z,10.63
2018-04-15T07:02:30.004Z,8.87
2018-04-15T07:04:56.408Z,9.40
2018-04-15T07:07:23.592Z,9.97
2018-04-15T07:09:50.038Z,8.80
2018-04-15T07:12:16.453Z,9.17
2018-04-15T07:14:42.881Z,9.50
2018-04-15T07:17:09.309Z,10.00
2018-04-15T07:19:35.773Z,9.90
2018-04-15T07:22:02.193Z,9.70
2018-04-15T07:24:28.613Z,9.07
2018-04-15T07:26:55.071Z,9.23
2018-04-15T07:29:21.506Z,8.53
2018-04-15T07:31:47.928Z,7.33
2018-04-15T07:34:14.361Z,7.47
2018-04-15T07:36:40.811Z,6.90
2018-04-15T07:39:07.231Z,6.87
2018-04-15T07:41:33.709Z,7.23
2018-04-15T07:44:00.131Z,7.20
2018-04-15T07:46:26.563Z,7.00
2018-04-15T07:48:52.992Z,7.20
2018-04-15T07:51:19.414Z,7.40
2018-04-15T07:53:45.917Z,6.63
2018-04-15T07:56:12.362Z,7.17
2018-04-15T07:58:38.766Z,6.53
2018-04-15T08:01:05.926Z,6.30
2018-04-15T08:03:32.367Z,6.40
2018-04-15T08:05:58.799Z,6.50
2018-04-15T08:08:25.205Z,5.77
2018-04-15T08:10:51.626Z,6.17
2018-04-15T08:13:18.797Z,5.80
2018-04-15T08:15:45.972Z,6.20
2018-04-15T08:18:12.411Z,5.97
2018-04-15T08:20:38.827Z,6.60
2018-04-15T08:23:05.313Z,6.90
2018-04-15T08:25:31.735Z,6.07
2018-04-15T08:27:58.164Z,6.97
2018-04-15T08:30:24.586Z,7.40
2018-04-15T08:32:57.832Z,6.27
2018-04-15T08:35:24.250Z,6.17
2018-04-15T08:37:50.851Z,5.90
2018-04-15T08:40:17.271Z,5.87
2018-04-15T08:42:43.716Z,6.47
2018-04-15T08:45:10.151Z,5.20
2018-04-15T08:47:36.583Z,5.87
2018-04-15T08:50:03.058Z,5.90
2018-04-15T08:52:29.477Z,5.83
2018-04-15T08:54:55.943Z,5.83
2018-04-15T08:57:22.393Z,5.63
2018-04-15T08:59:49.557Z,5.67
2018-04-15T09:02:15.985Z,4.63
2018-04-15T09:04:42.394Z,5.27
2018-04-15T09:07:08.876Z,5.67
2018-04-15T09:09:35.305Z,5.47
2018-04-15T09:12:01.739Z,5.07
2018-04-15T09:14:28.169Z,5.13
2018-04-15T09:16:54.588Z,4.50
2018-04-15T09:19:21.075Z,4.00
2018-04-15T09:21:47.514Z,4.77
2018-04-15T09:24:13.939Z,4.40
2018-04-15T09:26:40.368Z,4.30
2018-04-15T09:29:06.784Z,3.97
2018-04-15T09:31:33.207Z,3.50
2018-04-15T09:33:59.623Z,2.80
2018-04-15T09:36:26.036Z,2.83
2018-04-15T09:38:52.466Z,3.07
2018-04-15T09:41:19.649Z,3.37
2018-04-15T09:43:46.074Z,3.20
2018-04-15T09:46:12.523Z,3.43
2018-04-15T09:48:38.952Z,3.53
2018-04-15T09:51:05.383Z,3.50
2018-04-15T09:53:31.803Z,3.80
2018-04-15T09:55:58.235Z,3.43
2018-04-15T09:58:25.417Z,4.37
2018-04-15T10:00:51.877Z,3.90
2018-04-15T10:03:18.284Z,3.40
2018-04-15T10:05:44.715Z,3.57
2018-04-15T10:08:11.159Z,3.50
2018-04-15T10:10:37.573Z,3.90
2018-04-15T10:13:04.015Z,3.70
2018-04-15T10:15:30.448Z,3.40
2018-04-15T10:17:56.873Z,3.70
2018-04-15T10:20:23.295Z,3.90
2018-04-15T10:22:49.735Z,3.50
2018-04-15T10:25:16.151Z,2.80
2018-04-15T10:27:42.618Z,3.20
2018-04-15T10:30:09.082Z,3.60
2018-04-15T10:32:35.513Z,2.83
2018-04-15T10:35:01.954Z,2.70
2018-04-15T10:37:28.378Z,3.30
2018-04-15T10:39:54.795Z,3.00
2018-04-15T10:42:21.215Z,2.80
2018-04-15T10:44:47.621Z,2.90
2018-04-15T10:47:14.051Z,2.70
2018-04-15T10:49:40.474Z,2.73
2018-04-15T10:52:06.893Z,3.00
2018-04-15T10:54:33.371Z,2.87
2018-04-15T10:56:59.790Z,2.83
2018-04-15T10:59:26.946Z,2.93
2018-04-15T11:01:54.093Z,2.60
2018-04-15T11:04:21.252Z,2.63
2018-04-15T11:06:47.666Z,2.30
2018-04-15T11:09:14.837Z,2.20
2018-04-15T11:11:41.268Z,2.10
2018-04-15T11:14:07.819Z,2.37
2018-04-15T11:16:34.255Z,2.10
2018-04-15T11:19:00.665Z,2.10
2018-04-15T11:21:27.130Z,1.80
2018-04-15T11:23:53.581Z,1.90
2018-04-15T11:26:20.024Z,1.90
2018-04-15T11:28:46.437Z,2.00
2018-04-15T11:31:12.868Z,2.20
2018-04-15T11:33:39.293Z,2.20
2018-04-15T11:36:05.725Z,2.20
2018-04-15T11:38:32.187Z,1.97
2018-04-15T11:40:58.613Z,1.90
2018-04-15T11:43:25.040Z,2.20
2018-04-15T11:45:51.511Z,1.80
2018-04-15T11:48:17.953Z,1.60
2018-04-15T11:50:45.144Z,1.80
2018-04-15T11:53:11.577Z,1.50
2018-04-15T11:55:38.011Z,1.90
2018-04-15T11:58:04.455Z,1.90
2018-04-15T12:00:30.889Z,1.70
2018-04-15T12:02:57.331Z,1.77
2018-04-15T12:05:23.777Z,1.70
2018-04-15T12:07:50.236Z,1.63
2018-04-15T12:10:18.959Z,1.57
2018-04-15T12:12:45.420Z,1.70
2018-04-15T12:15:11.871Z,2.00
2018-04-15T12:17:38.347Z,2.17
2018-04-15T12:20:05.532Z,2.00
2018-04-15T12:22:31.989Z,1.80
2018-04-15T12:24:59.200Z,1.70
2018-04-15T12:27:25.687Z,1.77
2018-04-15T12:29:52.168Z,1.53
2018-04-15T12:32:18.615Z,1.70
2018-04-15T12:34:45.058Z,1.70
2018-04-15T12:37:11.496Z,2.10
2018-04-15T12:39:37.931Z,2.40
2018-04-15T12:42:04.374Z,2.40
2018-04-15T12:44:30.791Z,3.00
2018-04-15T12:46:57.213Z,3.00
2018-04-15T12:49:23.633Z,3.53
2018-04-15T12:51:50.048Z,3.20
2018-04-15T12:54:17.239Z,2.90
2018-04-15T12:56:43.666Z,3.50
2018-04-15T12:59:10.088Z,2.87
2018-04-15T13:01:36.507Z,3.30
2018-04-15T13:04:03.660Z,3.23
2018-04-15T13:06:30.836Z,3.23
2018-04-15T13:08:57.261Z,2.80
2018-04-15T13:11:23.771Z,3.00
2018-04-15T13:13:50.162Z,3.40
2018-04-15T13:16:16.595Z,3.40
2018-04-15T13:18:43.033Z,3.53
2018-04-15T13:21:09.438Z,3.20
2018-04-15T13:23:35.896Z,3.10
2018-04-15T13:26:02.360Z,3.20
2018-04-15T13:28:29.513Z,3.17
2018-04-15T13:30:55.936Z,3.30
2018-04-15T13:33:22.351Z,3.47
2018-04-15T13:35:48.782Z,3.37
2018-04-15T13:38:15.220Z,3.50
2018-04-15T13:40:41.623Z,2.43
2018-04-15T13:43:08.071Z,2.47
2018-04-15T13:45:34.480Z,2.00
2018-04-15T13:48:00.941Z,1.77
2018-04-15T13:50:27.351Z,2.40
2018-04-15T13:52:53.787Z,2.10
2018-04-15T13:55:20.245Z,2.30
2018-04-15T13:57:46.666Z,2.27
2018-04-15T14:00:13.114Z,2.23
2018-04-15T14:02:39.550Z,2.00
2018-04-15T14:05:05.977Z,2.20
2018-04-15T14:07:32.404Z,2.30
2018-04-15T14:09:58.831Z,2.60
2018-04-15T14:12:25.242Z,2.20
2018-04-15T14:14:51.665Z,1.47
2018-04-15T14:17:18.843Z,1.50
2018-04-15T14:19:45.264Z,1.60
2018-04-15T14:22:11.736Z,1.50
2018-04-15T14:24:38.171Z,1.20
2018-04-15T14:27:04.608Z,1.20
2018-04-15T14:29:31.044Z,1.27
2018-04-15T14:31:57.471Z,1.30
2018-04-15T14:34:23.878Z,1.47
2018-04-15T14:36:50.311Z,1.40
2018-04-15T14:39:16.748Z,1.60
2018-04-15T14:41:43.199Z,1.40
2018-04-15T14:44:09.621Z,1.40
2018-04-15T14:46:36.048Z,1.57
2018-04-15T14:49:02.486Z,1.40
2018-04-15T14:51:28.932Z,1.60
2018-04-15T14:53:55.356Z,1.90
2018-04-15T14:56:21.763Z,1.67
2018-04-15T14:58:48.208Z,1.50
2018-04-15T15:01:14.645Z,1.23
2018-04-15T15:03:41.089Z,1.47
2018-04-15T15:06:07.535Z,1.47
2018-04-15T15:08:33.952Z,1.80
2018-04-15T15:11:00.384Z,1.40
2018-04-15T15:13:26.851Z,1.60
2018-04-15T15:15:53.270Z,1.30
2018-04-15T15:18:19.693Z,1.60
2018-04-15T15:20:46.115Z,2.10
2018-04-15T15:23:12.535Z,1.60
2018-04-15T15:25:38.948Z,2.40
2018-04-15T15:28:05.419Z,1.87
2018-04-15T15:30:31.863Z,1.80
2018-04-15T15:32:58.377Z,2.20
2018-04-15T15:35:24.786Z,2.03
2018-04-15T15:37:51.958Z,2.20
2018-04-15T15:40:18.390Z,2.40
2018-04-15T15:42:44.801Z,2.30
2018-04-15T15:45:11.979Z,2.73
2018-04-15T15:47:38.401Z,2.83
2018-04-15T15:50:04.889Z,2.50
2018-04-15T15:52:31.327Z,2.37
2018-04-15T15:54:57.785Z,2.23
2018-04-15T15:57:24.946Z,2.53
2018-04-15T15:59:52.117Z,2.47
2018-04-15T16:02:18.554Z,2.60
2018-04-15T16:04:44.976Z,2.87
2018-04-15T16:07:11.448Z,3.00
2018-04-15T16:09:37.874Z,2.70
2018-04-15T16:12:04.318Z,2.97
2018-04-15T16:14:30.754Z,2.93
2018-04-15T16:16:57.190Z,3.20
2018-04-15T16:19:23.629Z,3.43
2018-04-15T16:21:50.063Z,3.30
2018-04-15T16:24:17.289Z,3.93
2018-04-15T16:26:43.719Z,2.80
2018-04-15T16:29:10.144Z,2.90
2018-04-15T16:31:36.562Z,3.20
2018-04-15T16:34:03.008Z,3.50
2018-04-15T16:36:29.441Z,3.60
2018-04-15T16:38:55.914Z,3.83
2018-04-15T16:41:22.342Z,3.47
2018-04-15T16:43:48.797Z,3.73
2018-04-15T16:46:15.970Z,4.27
2018-04-15T16:48:43.146Z,4.27
2018-04-15T16:51:09.564Z,4.60
2018-04-15T16:53:35.989Z,4.40
2018-04-15T16:56:03.158Z,4.57
2018-04-15T16:58:29.604Z,5.27
2018-04-15T17:00:56.042Z,5.20
2018-04-15T17:03:22.461Z,5.53
2018-04-15T17:05:48.882Z,5.67
2018-04-15T17:08:15.331Z,5.83
2018-04-15T17:10:41.770Z,5.73
2018-04-15T17:13:08.208Z,5.57
2018-04-15T17:15:34.670Z,6.10
2018-04-15T17:18:01.100Z,5.30
2018-04-15T17:20:27.557Z,5.33
2018-04-15T17:22:54.720Z,6.23
2018-04-15T17:25:21.161Z,5.47
2018-04-15T17:27:48.322Z,5.63
2018-04-15T17:30:14.735Z,5.43
2018-04-15T17:32:41.173Z,5.77
2018-04-15T17:35:08.370Z,5.93
2018-04-15T17:37:34.789Z,5.90
2018-04-15T17:40:01.223Z,5.67
2018-04-15T17:42:27.670Z,6.23
2018-04-15T17:44:54.090Z,6.07
2018-04-15T17:47:20.519Z,6.43
2018-04-15T17:49:46.943Z,5.87
2018-04-15T17:52:13.351Z,6.03
2018-04-15T17:54:40.528Z,6.10
2018-04-15T17:57:06.967Z,6.33
2018-04-15T17:59:33.404Z,6.43
2018-04-15T18:01:59.869Z,6.07
2018-04-15T18:04:26.322Z,6.70
2018-04-15T18:09:45.460Z,6.17
2018-04-15T18:12:11.903Z,6.23
2018-04-15T18:14:38.327Z,6.03
2018-04-15T18:17:04.749Z,5.67
2018-04-15T18:19:31.166Z,5.63
2018-04-15T18:21:57.602Z,6.13
2018-04-15T18:24:24.764Z,6.03
2018-04-15T18:26:51.183Z,5.50
2018-04-15T18:29:17.625Z,5.43
2018-04-15T18:31:44.084Z,5.23
2018-04-15T18:34:10.510Z,5.67
2018-04-15T18:36:36.964Z,5.63
2018-04-15T18:39:03.443Z,5.93
2018-04-15T18:41:29.860Z,5.87
2018-04-15T18:43:56.311Z,5.53
2018-04-15T18:46:22.731Z,5.53
2018-04-15T18:48:49.147Z,5.80
2018-04-15T18:51:15.587Z,5.50
2018-04-15T18:53:42.000Z,5.77
2018-04-15T18:56:08.421Z,6.17
2018-04-15T18:58:34.862Z,6.67
2018-04-15T19:01:01.341Z,6.80
2018-04-15T19:03:27.794Z,7.07
2018-04-15T19:05:54.972Z,6.97
2018-04-15T19:08:21.405Z,7.80
2018-04-15T19:10:47.868Z,6.10
2018-04-15T19:13:14.330Z,6.43
2018-04-15T19:15:40.784Z,6.00
2018-04-15T19:18:07.964Z,6.50
2018-04-15T19:20:34.404Z,6.13
2018-04-15T19:23:00.945Z,6.40
2018-04-15T19:25:27.405Z,6.03
2018-04-15T19:27:53.863Z,6.93
2018-04-15T19:30:22.331Z,6.63
2018-04-15T19:32:49.533Z,7.20
2018-04-15T19:35:16.171Z,7.17
2018-04-15T19:37:42.645Z,6.67
2018-04-15T19:40:09.135Z,6.63
2018-04-15T19:42:35.612Z,7.20
2018-04-15T19:45:02.087Z,6.20
2018-04-15T19:47:28.547Z,6.63
2018-04-15T19:49:55.006Z,6.63
2018-04-15T19:52:28.405Z,7.57
2018-04-15T19:54:54.873Z,7.47
2018-04-15T19:57:22.068Z,9.53
2018-04-15T19:59:48.506Z,12.93
2018-04-15T20:02:14.985Z,16.33
2018-04-15T20:04:42.201Z,15.40
2018-04-15T20:07:08.677Z,11.33
2018-04-15T20:09:35.869Z,14.67
2018-04-15T20:12:02.361Z,14.87
2018-04-15T20:14:28.839Z,11.37
2018-04-15T20:16:55.331Z,10.13
2018-04-15T20:19:21.786Z,10.30
2018-04-15T20:21:48.994Z,8.93
2018-04-15T20:24:15.547Z,8.37
2018-04-15T20:26:42.737Z,9.23
2018-04-15T20:29:09.227Z,8.47
2018-04-15T20:31:35.651Z,8.10
2018-04-15T20:34:02.118Z,7.37
2018-04-15T20:36:28.641Z,7.53
2018-04-15T20:38:55.092Z,7.73
2018-04-15T20:41:21.593Z,8.03
2018-04-15T20:43:48.057Z,7.63
2018-04-15T20:46:15.217Z,7.30
2018-04-15T20:48:41.677Z,7.40
2018-04-15T20:51:08.135Z,7.27
2018-04-15T20:53:34.605Z,7.60
2018-04-15T21:01:29.832Z,9.10
2018-04-15T21:04:14.438Z,8.87
2018-04-15T21:06:41.409Z,8.23
2018-04-15T21:09:07.851Z,8.40
2018-04-15T21:11:49.191Z,8.50
2018-04-15T21:14:15.632Z,8.20
2018-04-15T21:16:42.071Z,8.90
2018-04-15T21:19:08.521Z,8.07
2018-04-15T21:21:34.933Z,8.10
2018-04-15T21:24:01.360Z,7.43
2018-04-15T21:26:27.798Z,8.20
2018-04-15T21:28:54.239Z,7.60
2018-04-15T21:31:20.675Z,7.23
2018-04-15T21:33:47.114Z,7.40
2018-04-15T21:36:13.558Z,7.00
2018-04-15T21:38:40.007Z,7.27
2018-04-15T21:41:06.450Z,7.97
2018-04-15T21:43:34.374Z,8.30
2018-04-15T21:46:00.813Z,7.50
2018-04-15T21:48:27.272Z,8.50
2018-04-15T21:50:53.677Z,7.50
2018-04-15T21:53:20.140Z,7.60
2018-04-15T21:55:46.636Z,7.47
2018-04-15T21:58:13.057Z,7.17
2018-04-15T22:00:39.526Z,7.00
2018-04-15T22:03:06.009Z,6.23
2018-04-15T22:05:33.214Z,7.33
2018-04-15T22:07:59.658Z,6.30
2018-04-15T22:10:26.110Z,7.00
2018-04-15T22:12:52.802Z,6.30
2018-04-15T22:15:19.247Z,6.43
2018-04-15T22:17:45.650Z,7.17
2018-04-15T22:20:12.074Z,6.17
2018-04-15T22:22:39.226Z,7.10
2018-04-15T22:25:06.405Z,9.77
2018-04-15T22:27:32.858Z,7.80
2018-04-15T22:29:59.287Z,7.77
2018-04-15T22:32:25.724Z,6.60
2018-04-15T22:34:52.147Z,6.90
2018-04-15T22:37:18.579Z,5.27
2018-04-15T22:39:45.009Z,4.20
2018-04-15T22:42:11.457Z,4.67
2018-04-15T22:44:37.883Z,4.63
2018-04-15T22:47:04.334Z,4.73
2018-04-15T22:49:30.813Z,5.23
2018-04-15T22:51:57.983Z,6.40
2018-04-15T22:54:24.431Z,5.30
2018-04-15T22:56:50.895Z,7.40
2018-04-15T22:59:17.312Z,7.90
2018-04-15T23:01:43.775Z,7.63
2018-04-15T23:04:10.198Z,8.03
2018-04-15T23:06:36.638Z,9.87
2018-04-15T23:09:03.161Z,10.03
2018-04-15T23:11:29.591Z,10.90
2018-04-15T23:13:56.001Z,11.60
2018-04-15T23:16:22.462Z,11.67
2018-04-15T23:18:48.967Z,12.93
2018-04-15T23:21:15.383Z,13.77
2018-04-15T23:23:41.807Z,14.33
2018-04-15T23:26:08.984Z,15.47
2018-04-15T23:28:35.412Z,15.17
2018-04-15T23:31:01.824Z,13.90
2018-04-15T23:33:28.259Z,15.03
2018-04-15T23:35:54.686Z,14.20
2018-04-15T23:38:21.831Z,15.33
2018-04-15T23:40:49.001Z,14.80
2018-04-15T23:43:15.429Z,15.63
2018-04-15T23:45:41.839Z,17.13
2018-04-15T23:48:08.253Z,16.40
2018-04-15T23:50:36.146Z,16.90
2018-04-15T23:53:02.561Z,14.53
2018-04-15T23:55:28.967Z,14.83
2018-04-15T23:57:55.429Z,15.50
